Date,TemperatureHighF,TemperatureAvgF,TemperatureLowF,DewpointHighF,DewpointAvgF,DewpointLowF,HumidityHigh,HumidityAvg,HumidityLow,PressureMaxIn,PressureMinIn,WindSpeedMaxMPH,WindSpeedAvgMPH,GustSpeedMaxMPH,PrecipitationSumIn
2013-1-1,47,41,35,46,39,33,98,91,79,30.03,29.48,6,2,20,0.05
2013-1-2,50,42,33,50,42,32,100,98,92,30.31,30.03,6,2,16,0.01
2013-1-3,52,50,48,50,49,47,99,96,93,30.60,30.30,6,2,16,0.00
2013-1-4,50,48,46,48,46,45,97,92,86,30.63,30.58,6,2,18,0.00
2013-1-5,51,47,42,49,46,41,100,96,90,30.58,30.50,6,1,18,0.00
2013-1-6,47,44,40,47,44,40,100,99,96,30.50,30.37,3,1,10,0.01
2013-1-7,47,46,44,46,45,43,99,96,94,30.37,30.22,6,3,16,0.01
2013-1-8,51,49,46,49,47,45,99,93,88,30.25,30.16,6,3,16,0.04
2013-1-9,49,42,29,48,41,29,100,95,80,30.17,30.06,3,0,16,0.10
2013-1-10,36,33,28,36,33,28,100,99,96,30.06,29.91,0,0,4,0.01
2013-1-11,42,35,29,40,34,29,100,97,88,30.07,29.96,0,0,6,0.01
2013-1-12,40,37,31,37,34,30,100,88,67,29.97,29.83,12,4,32,0.06
2013-1-13,38,34,30,33,30,27,92,87,80,30.13,29.94,6,1,16,0.01
2013-1-14,35,32,30,35,31,28,100,96,92,30.09,29.61,6,1,12,0.04
2013-1-15,35,32,26,33,30,25,99,95,89,29.85,29.60,6,1,22,0.08
2013-1-16,31,27,24,30,27,23,99,98,95,30.01,29.83,3,0,8,0.01
2013-1-17,35,30,21,32,28,20,99,92,81,30.06,29.88,3,0,10,0.02
2013-1-18,35,30,28,30,28,26,96,89,79,29.87,29.42,9,4,22,0.01
2013-1-19,33,31,30,31,29,27,97,93,88,29.48,29.39,6,2,16,0.01
2013-1-20,32,30,29,31,29,26,98,94,86,29.47,29.26,6,1,20,0.02
2013-1-21,34,31,26,32,30,25,98,95,90,29.48,29.25,3,0,8,0.01
2013-1-22,36,30,21,35,29,20,100,95,85,29.67,29.48,6,2,22,0.11
2013-1-23,35,34,33,33,32,30,96,92,89,29.79,29.67,6,2,16,0.14
2013-1-24,35,34,32,32,30,28,95,88,81,30.12,29.79,6,1,10,0.04
2013-1-25,37,33,27,35,30,26,97,89,81,30.10,29.55,9,3,24,0.08
2013-1-26,45,40,35,41,38,34,100,92,84,29.80,29.54,6,3,16,0.22
2013-1-27,50,43,38,40,39,35,89,83,62,29.76,29.41,12,5,32,0.18
2013-1-28,50,42,34,48,40,33,99,92,84,29.80,29.49,18,7,44,0.10
2013-1-29,56,52,48,54,50,46,100,95,86,29.63,29.52,15,8,44,0.09
2013-1-30,54,49,43,53,44,39,99,85,67,30.01,29.49,15,9,38,0.19
2013-1-31,51,46,43,44,41,39,91,82,71,30.01,29.81,12,7,28,0.06
2013-2-1,45,41,35,43,39,34,99,93,84,29.83,29.44,6,1,14,0.17
2013-2-2,43,37,28,38,32,26,99,84,69,30.23,29.57,6,2,18,0.01
2013-2-3,47,39,27,46,37,25,96,92,87,30.24,29.88,12,3,26,0.00
2013-2-4,51,47,42,47,41,35,95,79,58,29.92,29.71,12,6,24,0.00
2013-2-5,42,39,34,39,34,29,93,81,61,29.71,29.31,12,6,28,0.14
2013-2-6,43,39,34,39,34,28,95,84,72,30.03,29.34,9,4,24,0.09
2013-2-7,43,36,32,36,31,27,97,82,69,30.09,29.97,3,1,22,0.04
2013-2-8,45,36,29,37,33,29,99,90,72,30.14,30.00,6,0,12,0.03
2013-2-9,38,36,33,36,34,31,97,94,87,30.14,29.85,6,1,14,0.02
2013-2-10,40,37,33,40,37,32,100,98,96,29.85,29.26,9,4,20,0.52
2013-2-11,34,33,32,34,33,32,99,99,98,29.75,29.27,3,1,10,0.28
2013-2-12,35,33,32,33,31,29,99,92,84,30.11,29.75,3,1,12,0.06
2013-2-13,38,34,32,36,30,26,98,85,69,30.18,29.96,6,3,20,0.03
2013-2-14,51,45,38,47,42,35,100,90,72,29.96,29.71,9,3,24,0.09
2013-2-15,52,40,32,43,37,32,100,89,69,30.19,29.95,3,0,14,0.02
2013-2-16,51,42,35,42,37,33,99,84,55,30.23,30.17,3,0,8,0.00
2013-2-17,50,39,31,42,35,30,100,88,53,30.19,30.08,6,2,16,0.01
2013-2-18,48,39,31,39,35,30,99,88,68,30.13,30.08,3,1,14,0.01
2013-2-19,51,36,25,41,32,25,100,87,55,30.12,30.03,0,0,8,0.00
2013-2-20,42,36,34,38,32,28,100,86,70,30.25,30.09,9,4,22,0.03
2013-2-21,35,34,32,29,25,22,77,70,63,30.25,30.16,9,5,20,0.01
2013-2-22,35,33,31,27,25,22,79,72,65,30.16,30.09,6,4,20,0.00
2013-2-23,36,33,30,30,27,24,92,81,68,30.20,30.09,6,2,18,0.00
2013-2-24,35,33,31,30,29,28,92,84,77,30.27,30.19,3,2,14,0.00
2013-2-25,39,37,34,36,34,29,93,90,83,30.37,30.25,9,4,24,0.00
2013-2-26,40,38,36,39,37,34,98,96,92,30.55,30.37,6,3,18,0.02
2013-2-27,43,38,35,37,35,33,98,90,75,30.56,30.47,6,3,16,0.01
2013-2-28,48,39,33,39,35,31,96,86,64,30.47,30.32,6,3,18,0.01
2013-3-1,41,38,35,38,36,32,99,93,78,30.40,30.35,6,1,14,0.02
2013-3-2,42,36,27,34,31,26,96,83,72,30.39,30.26,3,0,12,0.01
2013-3-3,47,37,26,38,33,25,99,87,66,30.27,30.09,9,2,20,0.00
2013-3-4,50,40,33,38,34,31,95,80,53,30.09,29.73,6,2,20,0.00
2013-3-5,62,44,30,46,38,29,100,82,54,29.73,29.56,3,1,16,0.00
2013-3-6,55,49,44,46,43,40,90,79,68,29.57,29.50,3,0,14,0.01
2013-3-7,50,47,44,49,46,43,100,97,90,29.51,29.36,3,1,10,0.20
2013-3-8,50,48,45,50,48,45,100,100,99,29.53,29.36,3,0,8,0.23
2013-3-9,45,42,37,45,41,35,100,97,92,29.66,29.52,3,0,8,0.17
2013-3-10,38,36,32,35,32,28,94,89,84,29.73,29.65,9,5,28,0.01
2013-3-11,33,31,28,29,24,19,86,76,60,29.75,29.72,12,9,34,0.01
2013-3-12,40,33,27,32,25,19,90,72,50,29.81,29.74,12,7,38,0.00
2013-3-13,45,36,29,34,30,27,95,79,54,29.94,29.77,6,2,18,0.00
2013-3-14,47,36,25,34,28,24,99,75,48,30.00,29.90,3,1,16,0.01
2013-3-15,47,42,36,43,38,28,97,89,71,29.90,29.53,12,7,34,0.24
2013-3-16,47,43,41,43,41,39,97,92,81,29.53,29.26,15,10,32,0.30
2013-3-17,45,39,33,43,38,31,98,94,89,29.31,29.15,9,2,24,0.20
2013-3-18,48,36,28,45,35,28,100,97,81,29.35,29.21,0,0,8,0.56
2013-3-19,47,39,34,40,36,33,99,91,67,29.50,29.35,3,0,12,0.09
2013-3-20,43,38,33,39,36,32,99,93,84,29.99,29.50,3,1,14,0.01
2013-3-21,43,38,30,36,33,28,97,83,72,30.02,29.91,9,4,24,0.02
2013-3-22,42,38,35,36,34,32,95,88,79,29.91,29.73,12,8,28,0.23
2013-3-23,36,34,33,35,33,32,98,97,94,29.87,29.74,9,5,26,0.32
2013-3-24,33,32,31,32,28,25,97,88,73,29.93,29.86,9,4,24,0.01
2013-3-25,34,33,31,28,26,24,84,76,71,29.97,29.91,9,5,22,0.02
2013-3-26,34,33,31,28,26,25,87,75,69,29.93,29.88,9,4,20,0.01
2013-3-27,41,34,29,29,26,25,89,75,59,29.88,29.84,6,2,18,0.00
2013-3-28,40,35,29,32,27,25,93,75,60,29.94,29.84,6,2,20,0.00
2013-3-29,44,35,26,29,26,23,90,70,45,29.91,29.77,9,2,18,0.00
2013-3-30,42,36,32,33,29,26,85,76,62,29.96,29.78,6,3,18,0.00
2013-3-31,42,35,26,30,26,-100,94,74,51,29.97,29.88,6,2,16,0.00
2013-4-1,44,36,31,31,28,24,87,73,54,29.89,29.83,9,4,34,0.00
2013-4-2,48,38,30,31,25,18,90,64,34,30.05,29.88,9,4,24,0.00
2013-4-3,42,36,30,31,27,24,93,71,53,30.06,29.98,9,6,30,0.00
2013-4-4,38,35,32,34,29,24,89,79,59,29.99,29.91,9,6,26,0.01
2013-4-5,48,39,34,33,29,24,86,69,41,30.10,29.90,9,7,34,0.01
2013-4-6,53,40,28,35,30,26,96,69,41,30.27,30.10,6,2,20,0.00
2013-4-7,52,39,25,34,28,23,97,66,33,30.27,29.88,6,2,18,0.00
2013-4-8,52,43,38,36,32,28,82,66,44,29.88,29.55,9,5,20,0.00
2013-4-9,49,42,36,42,38,34,94,86,71,29.55,29.38,6,2,18,0.05
2013-4-10,53,44,36,43,39,34,97,83,63,29.70,29.42,6,2,22,0.20
2013-4-11,53,46,41,47,43,40,99,93,76,29.48,29.35,6,2,20,0.30
2013-4-12,54,47,42,50,45,41,99,94,78,29.72,29.28,9,2,18,0.29
2013-4-13,53,47,36,51,45,35,100,94,76,29.89,29.72,9,5,24,0.18
2013-4-14,68,58,51,55,51,48,100,79,56,29.93,29.85,21,10,44,0.06
2013-4-15,61,55,49,50,48,45,90,79,66,30.04,29.92,12,7,36,0.01
2013-4-16,62,54,49,49,46,44,94,75,52,30.07,29.88,15,8,38,0.00
2013-4-17,65,55,47,52,50,45,99,83,63,30.06,29.75,15,8,34,0.00
2013-4-18,57,51,45,46,41,34,89,71,50,30.06,29.76,18,11,40,0.03
2013-4-19,59,49,41,44,41,37,91,74,50,30.48,30.06,6,2,16,0.03
2013-4-20,59,46,33,40,34,28,100,68,31,30.54,30.35,3,2,16,0.00
2013-4-21,61,46,29,41,35,28,98,70,41,30.36,30.01,9,2,22,0.00
2013-4-22,58,50,41,48,44,39,97,81,55,30.01,29.93,9,4,24,0.00
2013-4-23,69,58,48,53,49,47,97,76,52,30.19,29.96,6,2,20,0.00
2013-4-24,68,57,44,56,51,43,99,82,64,30.24,30.17,9,3,24,0.02
2013-4-25,72,59,49,58,52,48,100,80,50,30.23,30.01,12,3,28,0.02
2013-4-26,56,49,39,49,40,32,98,75,48,30.02,29.88,6,1,18,0.13
2013-4-27,53,43,35,43,37,33,96,80,60,30.09,29.88,6,2,22,0.05
2013-4-28,54,43,29,40,34,28,98,73,45,30.09,29.88,12,4,32,0.02
2013-4-29,58,50,40,44,39,35,92,68,45,30.16,29.87,9,3,24,0.01
2013-4-30,59,49,36,42,38,34,94,70,44,30.30,30.16,6,2,18,0.00
2013-5-1,63,49,35,44,37,32,97,68,36,30.31,30.15,3,1,16,0.00
2013-5-2,66,53,39,38,31,24,79,47,23,30.21,30.14,6,1,18,0.00
2013-5-3,69,53,35,47,40,33,96,66,38,30.17,30.02,6,2,22,0.00
2013-5-4,64,55,44,50,44,41,91,69,44,30.03,29.96,15,5,28,0.00
2013-5-5,68,62,55,53,48,43,82,59,50,30.18,30.00,6,3,22,0.00
2013-5-6,73,59,47,52,48,43,97,70,45,30.15,30.02,3,1,14,0.00
2013-5-7,74,59,42,49,46,41,98,65,40,30.06,29.84,3,1,18,0.00
2013-5-8,63,56,49,56,51,42,97,82,67,29.85,29.66,12,4,28,0.04
2013-5-9,59,50,43,48,43,40,95,78,52,29.82,29.64,18,9,42,0.04
2013-5-10,63,53,49,50,46,-100,95,81,57,29.90,29.66,12,7,28,0.05
2013-5-11,56,49,42,51,44,41,97,86,65,29.90,29.77,9,4,30,0.20
2013-5-12,61,48,39,51,43,-100,98,86,53,29.99,29.88,6,4,22,0.13
2013-5-13,59,52,44,51,44,37,97,74,46,29.89,29.79,12,6,26,0.02
2013-5-14,52,47,43,48,43,40,98,87,72,29.80,29.23,15,5,26,0.32
2013-5-15,48,46,42,44,41,38,94,84,80,29.52,29.13,15,8,32,0.22
2013-5-16,63,46,34,46,28,-100,100,78,41,29.54,29.47,3,1,12,0.03
2013-5-17,54,48,43,47,40,-100,97,85,73,29.80,29.54,3,0,14,0.01
2013-5-18,60,52,46,49,46,42,91,78,63,29.79,29.70,3,1,14,0.00
2013-5-19,65,55,43,52,48,42,98,79,60,29.88,29.77,3,0,16,0.00
2013-5-20,63,57,51,58,54,49,95,90,84,29.89,29.82,3,0,14,0.01
2013-5-21,60,56,52,57,51,48,92,86,75,30.06,29.89,3,2,16,0.00
2013-5-22,57,52,45,49,46,37,95,81,60,30.08,30.00,3,1,18,0.00
2013-5-23,51,46,40,43,38,36,89,76,57,30.00,29.87,9,1,22,0.01
2013-5-24,48,44,41,47,41,37,96,90,82,30.01,29.61,6,2,20,0.17
2013-5-25,60,49,40,47,41,39,98,77,51,30.16,30.01,3,1,16,0.02
2013-5-26,69,54,37,48,41,36,96,65,38,30.12,29.94,3,1,14,0.01
2013-5-27,64,54,39,46,41,29,92,65,30,29.94,29.61,12,4,32,0.00
2013-5-28,54,51,48,53,48,42,99,91,67,29.62,29.46,3,0,10,0.41
2013-5-29,55,50,46,53,49,45,99,96,86,29.75,29.55,0,0,12,0.01
2013-5-30,58,54,51,55,52,50,99,94,86,29.99,29.73,3,1,14,0.13
2013-5-31,71,60,51,60,53,49,94,81,62,30.10,29.98,3,1,14,0.01
2013-6-1,64,56,49,52,47,43,86,72,54,30.28,30.10,3,1,12,0.00
2013-6-2,65,56,43,49,45,41,97,69,49,30.42,30.28,3,1,14,0.00
2013-6-3,67,56,43,49,45,41,98,69,46,30.47,30.39,6,2,14,0.00
2013-6-4,66,54,51,50,45,44,89,72,54,30.42,30.20,6,1,16,0.00
2013-6-5,70,57,46,55,49,43,92,76,55,30.22,30.07,3,2,14,0.00
2013-6-6,72,58,46,56,49,44,91,73,53,30.17,30.11,3,2,16,0.00
2013-6-7,70,58,47,55,48,43,87,71,46,30.21,30.16,6,2,14,0.00
2013-6-8,65,56,47,51,47,44,90,75,57,30.21,30.06,6,3,22,0.00
2013-6-9,60,54,49,50,47,44,85,78,66,30.07,29.95,6,2,18,0.00
2013-6-10,60,54,50,48,46,43,80,73,62,29.99,29.93,3,0,10,0.00
2013-6-11,63,56,47,59,52,44,90,86,75,29.96,29.87,6,2,18,0.00
2013-6-12,62,59,56,60,56,52,97,90,79,29.88,29.79,9,6,26,0.08
2013-6-13,62,57,53,57,52,47,96,83,64,30.02,29.75,12,7,26,0.06
2013-6-14,65,56,45,54,49,43,96,77,48,30.05,29.78,9,3,20,0.00
2013-6-15,63,56,50,55,50,46,96,81,60,29.85,29.68,12,7,28,0.16
2013-6-16,61,56,51,52,50,48,89,80,66,29.95,29.85,9,3,22,0.02
2013-6-17,68,60,54,54,52,49,88,74,58,29.96,29.90,6,2,18,0.01
2013-6-18,69,63,55,63,57,51,93,82,74,29.96,29.89,3,0,8,0.01
2013-6-19,80,68,59,64,61,58,99,80,54,29.96,29.90,3,0,12,0.00